Terminal Aerodrome Forecast
Issued by NWS Charleston, WV

Current Version | Previous Version | Text Only | Print | Product List | Glossary On
Versions: 1 2 3 4 5 6 7 8 9 10 11 12 13 14 15 16
615
FTUS41 KRLX 222328
TAFCRW
TAF
KCRW 222328Z 2300/2324 07006KT P6SM BKN200
     FM230600 11004KT P6SM BKN200 BKN250 WS020/14035KT
     FM231300 11008G17KT P6SM BKN200
     FM231800 13009G16KT P6SM -SHRA OVC050
     FM232100 11009G15KT P6SM OVC050=

USA.gov is the U.S. government's official web portal to all federal, state and local government web resources and services.